createdAt,value
2018-05-07T00:01:08.257Z,12.50
2018-05-07T00:03:35.701Z,12.50
2018-05-07T00:06:04.085Z,12.50
2018-05-07T00:08:31.652Z,12.40
2018-05-07T00:10:59.228Z,12.40
2018-05-07T00:13:26.762Z,12.40
2018-05-07T00:15:54.322Z,12.40
2018-05-07T00:18:21.877Z,12.30
2018-05-07T00:20:50.193Z,12.30
2018-05-07T00:23:17.711Z,12.20
2018-05-07T00:25:45.351Z,12.30
2018-05-07T00:28:12.868Z,12.20
2018-05-07T00:30:40.443Z,12.20
2018-05-07T00:33:07.976Z,12.20
2018-05-07T00:35:35.553Z,12.20
2018-05-07T00:38:03.076Z,12.20
2018-05-07T00:40:30.647Z,12.10
2018-05-07T00:42:58.183Z,12.10
2018-05-07T00:45:25.763Z,12.10
2018-05-07T00:47:53.280Z,12.10
2018-05-07T00:50:20.791Z,12.10
2018-05-07T00:52:48.391Z,12.00
2018-05-07T00:55:20.842Z,12.00
2018-05-07T00:57:48.418Z,12.00
2018-05-07T01:00:15.955Z,12.00
2018-05-07T01:02:43.561Z,12.00
2018-05-07T01:05:11.092Z,12.00
2018-05-07T01:07:38.647Z,12.00
2018-05-07T01:10:09.272Z,12.00
2018-05-07T01:12:36.900Z,12.00
2018-05-07T01:15:04.450Z,12.00
2018-05-07T01:17:32.851Z,12.00
2018-05-07T01:20:00.403Z,11.90
2018-05-07T01:22:28.004Z,12.00
2018-05-07T01:24:56.408Z,11.90
2018-05-07T01:27:24.028Z,11.90
2018-05-07T01:29:51.595Z,11.90
2018-05-07T01:32:19.166Z,11.90
2018-05-07T01:34:46.717Z,11.80
2018-05-07T01:37:14.804Z,11.90
2018-05-07T01:39:42.343Z,11.80
2018-05-07T01:42:09.882Z,11.80
2018-05-07T01:44:37.447Z,11.80
2018-05-07T01:47:04.965Z,11.80
2018-05-07T01:49:32.537Z,11.80
2018-05-07T01:52:00.859Z,11.80
2018-05-07T01:54:28.475Z,11.70
2018-05-07T01:56:56.787Z,11.80
2018-05-07T01:59:24.387Z,11.70
2018-05-07T02:01:51.951Z,11.80
2018-05-07T02:04:19.559Z,11.80
2018-05-07T02:06:47.074Z,11.70
2018-05-07T02:09:14.637Z,11.70
2018-05-07T02:11:42.167Z,11.80
2018-05-07T02:14:09.709Z,11.80
2018-05-07T02:16:37.327Z,11.80
2018-05-07T02:19:04.887Z,11.80
2018-05-07T02:21:33.210Z,11.70
2018-05-07T02:24:00.729Z,11.70
2018-05-07T02:26:28.363Z,11.70
2018-05-07T02:28:55.905Z,11.70
2018-05-07T02:31:23.543Z,11.70
2018-05-07T02:33:51.072Z,11.70
2018-05-07T02:36:19.423Z,11.60
2018-05-07T02:38:46.936Z,11.60
2018-05-07T02:41:14.575Z,11.70
2018-05-07T02:43:42.101Z,11.70
2018-05-07T02:46:09.689Z,11.60
2018-05-07T02:48:37.426Z,11.70
2018-05-07T02:51:04.991Z,11.60
2018-05-07T02:53:32.519Z,11.60
2018-05-07T02:56:00.115Z,11.60
2018-05-07T02:58:27.660Z,11.60
2018-05-07T03:00:55.178Z,11.50
2018-05-07T03:03:22.758Z,11.50
2018-05-07T03:05:50.335Z,11.50
2018-05-07T03:08:17.930Z,11.40
2018-05-07T03:10:46.237Z,11.40
2018-05-07T03:13:13.809Z,11.40
2018-05-07T03:15:41.369Z,11.40
2018-05-07T03:18:08.990Z,11.30
2018-05-07T03:20:37.286Z,11.30
2018-05-07T03:23:04.837Z,11.20
2018-05-07T03:25:32.452Z,11.30
2018-05-07T03:28:00.023Z,11.20
2018-05-07T03:30:27.558Z,11.20
2018-05-07T03:32:55.113Z,11.20
2018-05-07T03:35:22.693Z,11.20
2018-05-07T03:37:50.242Z,11.20
2018-05-07T03:40:17.761Z,11.10
2018-05-07T03:42:45.274Z,11.10
2018-05-07T03:45:12.866Z,11.10
2018-05-07T03:47:41.172Z,11.10
2018-05-07T03:50:08.739Z,11.00
2018-05-07T03:52:36.266Z,11.10
2018-05-07T03:55:04.694Z,11.10
2018-05-07T03:57:32.983Z,11.10
2018-05-07T04:00:00.544Z,11.00
2018-05-07T04:02:28.088Z,11.10
2018-05-07T04:04:55.660Z,11.10
2018-05-07T04:07:23.428Z,11.10
2018-05-07T04:09:50.964Z,11.10
2018-05-07T04:12:18.483Z,11.20
2018-05-07T04:14:46.055Z,11.20
2018-05-07T04:20:31.637Z,11.30
2018-05-07T04:23:11.107Z,11.30
2018-05-07T04:25:38.713Z,11.40
2018-05-07T04:28:06.251Z,11.40
2018-05-07T04:30:33.866Z,11.50
2018-05-07T04:33:01.377Z,11.50
2018-05-07T04:35:29.732Z,11.60
2018-05-07T04:37:57.265Z,11.60
2018-05-07T04:40:25.612Z,11.80
2018-05-07T04:42:53.733Z,11.70
2018-05-07T04:45:21.655Z,11.80
2018-05-07T04:47:49.186Z,11.90
2018-05-07T04:50:16.774Z,11.90
2018-05-07T04:52:45.112Z,12.10
2018-05-07T04:55:12.733Z,12.00
2018-05-07T04:57:41.034Z,12.20
2018-05-07T05:00:08.977Z,12.10
2018-05-07T05:02:36.573Z,12.30
2018-05-07T05:05:04.098Z,12.30
2018-05-07T05:07:32.464Z,12.50
2018-05-07T05:09:59.983Z,12.40
2018-05-07T05:12:27.546Z,12.50
2018-05-07T05:14:55.103Z,12.60
2018-05-07T05:17:22.667Z,12.60
2018-05-07T05:19:50.198Z,12.70
2018-05-07T05:22:17.774Z,12.80
2018-05-07T05:24:45.305Z,12.90
2018-05-07T05:27:12.897Z,13.00
2018-05-07T05:29:40.476Z,13.00
2018-05-07T05:32:08.105Z,13.10
2018-05-07T05:34:35.645Z,13.20
2018-05-07T05:37:03.231Z,13.20
2018-05-07T05:39:30.789Z,13.30
2018-05-07T05:41:58.326Z,13.40
2018-05-07T05:44:26.686Z,13.50
2018-05-07T05:46:54.240Z,13.50
2018-05-07T05:49:21.752Z,13.60
2018-05-07T05:51:49.617Z,13.80
2018-05-07T05:54:17.191Z,13.80
2018-05-07T05:56:45.471Z,14.00
2018-05-07T05:59:13.016Z,14.00
2018-05-07T06:01:40.579Z,14.10
2018-05-07T06:04:08.135Z,14.30
2018-05-07T06:06:35.683Z,14.40
2018-05-07T06:09:03.289Z,14.40
2018-05-07T06:11:30.828Z,14.50
2018-05-07T06:13:58.443Z,14.60
2018-05-07T06:16:26.791Z,14.70
2018-05-07T06:18:54.369Z,14.70
2018-05-07T06:21:21.918Z,14.80
2018-05-07T06:23:49.472Z,14.90
2018-05-07T06:26:17.064Z,14.90
2018-05-07T06:28:45.387Z,15.00
2018-05-07T06:31:12.899Z,14.90
2018-05-07T06:33:40.465Z,15.10
2018-05-07T06:36:07.988Z,15.10
2018-05-07T06:38:35.557Z,15.20
2018-05-07T06:41:03.068Z,15.30
2018-05-07T06:43:30.717Z,15.40
2018-05-07T06:45:58.318Z,15.50
2018-05-07T06:48:25.823Z,15.50
2018-05-07T06:50:53.420Z,15.50
2018-05-07T06:53:20.987Z,15.50
2018-05-07T06:55:49.374Z,15.60
2018-05-07T06:58:16.963Z,15.60
2018-05-07T07:00:44.601Z,15.70
2018-05-07T07:03:12.154Z,15.80
2018-05-07T07:05:39.775Z,15.90
2018-05-07T07:08:07.411Z,15.90
2018-05-07T07:10:34.947Z,16.10
2018-05-07T07:13:02.490Z,16.20
2018-05-07T07:15:30.047Z,16.40
2018-05-07T07:17:57.637Z,16.50
2018-05-07T07:20:25.280Z,16.60
2018-05-07T07:22:52.845Z,16.60
2018-05-07T07:25:20.442Z,16.80
2018-05-07T07:27:48.015Z,16.90
2018-05-07T07:30:15.640Z,17.00
2018-05-07T07:32:43.222Z,17.10
2018-05-07T07:35:11.551Z,17.30
2018-05-07T07:37:39.866Z,17.40
2018-05-07T07:40:08.256Z,17.50
2018-05-07T07:42:35.850Z,17.50
2018-05-07T07:45:03.448Z,17.50
2018-05-07T07:47:31.070Z,17.50
2018-05-07T07:49:58.697Z,17.70
2018-05-07T07:52:26.343Z,17.80
2018-05-07T07:54:53.902Z,17.90
2018-05-07T07:57:22.244Z,17.90
2018-05-07T07:59:49.814Z,17.80
2018-05-07T08:02:18.218Z,18.10
2018-05-07T08:04:45.798Z,18.00
2018-05-07T08:07:14.903Z,18.20
2018-05-07T08:09:42.439Z,18.20
2018-05-07T08:12:10.037Z,18.40
2018-05-07T08:14:40.931Z,18.50
2018-05-07T08:17:09.617Z,18.70
2018-05-07T08:19:37.175Z,18.80
2018-05-07T08:22:04.734Z,18.70
2018-05-07T08:24:32.363Z,18.80
2018-05-07T08:26:59.919Z,19.10
2018-05-07T08:29:27.537Z,19.20
2018-05-07T08:31:55.140Z,19.20
2018-05-07T08:34:22.709Z,19.00
2018-05-07T08:36:50.250Z,19.10
2018-05-07T08:39:17.863Z,19.10
2018-05-07T08:41:45.492Z,19.30
2018-05-07T08:44:13.054Z,19.50
2018-05-07T08:46:40.693Z,19.70
2018-05-07T08:49:08.253Z,20.00
2018-05-07T08:51:35.855Z,20.10
2018-05-07T08:54:03.491Z,20.30
2018-05-07T08:56:31.101Z,20.40
2018-05-07T08:58:58.697Z,20.50
2018-05-07T09:01:26.308Z,20.40
2018-05-07T09:03:53.953Z,20.60
2018-05-07T09:06:21.498Z,20.90
2018-05-07T09:08:49.119Z,20.90
2018-05-07T09:11:16.741Z,20.80
2018-05-07T09:13:44.371Z,21.00
2018-05-07T09:16:12.297Z,21.00
2018-05-07T09:18:39.905Z,21.10
2018-05-07T09:21:07.593Z,21.20
2018-05-07T09:23:35.187Z,21.20
2018-05-07T09:26:02.823Z,21.20
2018-05-07T09:28:30.358Z,21.40
2018-05-07T09:30:57.980Z,21.50
2018-05-07T09:33:25.603Z,21.50
2018-05-07T09:35:53.196Z,21.50
2018-05-07T09:38:20.774Z,21.50
2018-05-07T09:40:48.406Z,21.80
2018-05-07T09:43:15.988Z,22.00
2018-05-07T09:45:43.567Z,22.10
2018-05-07T09:48:11.605Z,22.00
2018-05-07T09:50:39.277Z,22.30
2018-05-07T09:53:06.890Z,22.10
2018-05-07T09:55:34.470Z,22.50
2018-05-07T09:58:03.555Z,22.40
2018-05-07T10:00:37.595Z,22.20
2018-05-07T10:03:06.073Z,22.10
2018-05-07T10:05:34.464Z,22.10
2018-05-07T10:08:02.103Z,22.00
2018-05-07T10:10:30.550Z,22.40
2018-05-07T10:12:58.162Z,22.30
2018-05-07T10:15:27.061Z,22.50
2018-05-07T10:17:54.749Z,22.60
2018-05-07T10:20:22.304Z,22.80
2018-05-07T10:22:49.905Z,22.90
2018-05-07T10:25:17.488Z,22.90
2018-05-07T10:27:45.180Z,23.20
2018-05-07T10:30:12.744Z,23.30
2018-05-07T10:32:40.381Z,23.40
2018-05-07T10:35:08.018Z,23.30
2018-05-07T10:37:35.580Z,23.30
2018-05-07T10:40:03.145Z,23.00
2018-05-07T10:42:30.706Z,23.30
2018-05-07T10:44:58.311Z,23.50
2018-05-07T10:47:25.902Z,23.50
2018-05-07T10:49:53.476Z,23.60
2018-05-07T10:52:21.034Z,23.80
2018-05-07T10:54:48.698Z,24.00
2018-05-07T10:57:16.256Z,24.10
2018-05-07T10:59:43.858Z,24.30
2018-05-07T11:02:11.456Z,24.30
2018-05-07T11:04:39.112Z,24.40
2018-05-07T11:07:06.724Z,24.30
2018-05-07T11:09:34.531Z,24.50
2018-05-07T11:12:02.177Z,24.60
2018-05-07T11:14:29.879Z,24.70
2018-05-07T11:16:57.515Z,24.70
2018-05-07T11:19:25.325Z,24.60
2018-05-07T11:21:53.080Z,24.60
2018-05-07T11:24:20.749Z,24.60
2018-05-07T11:26:48.426Z,24.40
2018-05-07T11:29:16.872Z,24.90
2018-05-07T11:31:44.528Z,24.90
2018-05-07T11:34:12.151Z,24.90
2018-05-07T11:36:39.964Z,24.70
2018-05-07T11:39:07.563Z,24.50
2018-05-07T11:41:36.040Z,24.40
2018-05-07T11:44:04.387Z,24.70
2018-05-07T11:46:32.027Z,24.60
2018-05-07T11:48:59.583Z,24.80
2018-05-07T11:51:27.124Z,24.80
2018-05-07T11:53:54.691Z,24.80
2018-05-07T11:56:22.363Z,24.80
2018-05-07T11:58:50.459Z,25.10
2018-05-07T12:01:18.786Z,25.20
2018-05-07T12:03:46.403Z,25.10
2018-05-07T12:06:14.080Z,25.10
2018-05-07T12:08:41.669Z,25.20
2018-05-07T12:11:09.462Z,25.40
2018-05-07T12:13:37.146Z,25.40
2018-05-07T12:16:04.949Z,25.00
2018-05-07T12:18:32.568Z,25.10
2018-05-07T12:21:00.169Z,25.30
2018-05-07T12:23:27.772Z,25.50
2018-05-07T12:25:55.363Z,25.60
2018-05-07T12:28:23.047Z,25.60
2018-05-07T12:30:50.718Z,25.50
2018-05-07T12:33:18.442Z,25.40
2018-05-07T12:35:46.223Z,25.60
2018-05-07T12:38:13.978Z,25.60
2018-05-07T12:40:41.736Z,25.70
2018-05-07T12:43:09.477Z,26.00
2018-05-07T12:45:37.232Z,25.60
2018-05-07T12:48:05.023Z,25.40
2018-05-07T12:50:32.860Z,25.40
2018-05-07T12:53:00.435Z,25.50
2018-05-07T12:55:28.162Z,25.60
2018-05-07T12:57:55.910Z,25.60
2018-05-07T13:00:24.475Z,25.40
2018-05-07T13:02:52.061Z,25.40
2018-05-07T13:05:19.681Z,25.40
2018-05-07T13:07:47.329Z,25.40
2018-05-07T13:10:15.771Z,25.60
2018-05-07T13:12:43.499Z,25.60
2018-05-07T13:15:11.293Z,25.60
2018-05-07T13:17:39.061Z,25.30
2018-05-07T13:20:06.888Z,25.40
2018-05-07T13:22:34.543Z,25.60
2018-05-07T13:25:02.263Z,25.50
2018-05-07T13:27:29.984Z,25.20
2018-05-07T13:29:57.639Z,25.10
2018-05-07T13:32:26.019Z,25.10
2018-05-07T13:34:53.579Z,25.10
2018-05-07T13:37:21.249Z,25.00
2018-05-07T13:39:48.848Z,25.20
2018-05-07T13:42:16.542Z,25.10
2018-05-07T13:44:44.933Z,25.10
2018-05-07T13:47:12.809Z,25.10
2018-05-07T13:49:40.328Z,25.20
2018-05-07T13:52:07.965Z,25.10
2018-05-07T13:54:35.560Z,25.10
2018-05-07T13:57:03.164Z,25.20
2018-05-07T13:59:30.757Z,25.20
2018-05-07T14:01:58.318Z,25.20
2018-05-07T14:04:25.944Z,25.20
2018-05-07T14:06:53.471Z,25.30
2018-05-07T14:09:21.055Z,25.20
2018-05-07T14:11:48.592Z,25.20
2018-05-07T14:14:16.234Z,25.10
2018-05-07T14:16:43.930Z,25.10
2018-05-07T14:19:12.285Z,25.20
2018-05-07T14:21:39.867Z,25.10
2018-05-07T14:24:07.494Z,25.20
2018-05-07T14:26:35.169Z,25.20
2018-05-07T14:29:02.830Z,25.10
2018-05-07T14:31:30.588Z,25.00
2018-05-07T14:33:59.122Z,24.90
2018-05-07T14:36:27.552Z,24.90
2018-05-07T14:38:55.239Z,24.90
2018-05-07T14:41:22.834Z,25.00
2018-05-07T14:43:50.517Z,25.00
2018-05-07T14:46:18.248Z,24.90
2018-05-07T14:48:45.945Z,25.00
2018-05-07T14:51:14.392Z,24.90
2018-05-07T14:53:42.132Z,24.90
2018-05-07T14:56:09.812Z,24.90
2018-05-07T14:58:37.680Z,24.90
2018-05-07T15:01:06.118Z,24.70
2018-05-07T15:03:33.930Z,24.60
2018-05-07T15:06:02.394Z,24.40
2018-05-07T15:08:30.060Z,24.40
2018-05-07T15:10:57.724Z,24.40
2018-05-07T15:13:25.436Z,24.50
2018-05-07T15:15:53.817Z,24.40
2018-05-07T15:18:21.473Z,24.30
2018-05-07T15:20:49.112Z,24.30
2018-05-07T15:23:16.719Z,24.30
2018-05-07T15:25:45.150Z,24.40
2018-05-07T15:28:12.720Z,24.30
2018-05-07T15:30:40.354Z,24.40
2018-05-07T15:33:07.859Z,24.40
2018-05-07T15:35:35.413Z,24.30
2018-05-07T15:38:03.732Z,24.20
2018-05-07T15:40:31.248Z,24.20
2018-05-07T15:42:58.822Z,24.20
2018-05-07T15:45:26.336Z,24.20
2018-05-07T15:47:53.967Z,24.00
2018-05-07T15:50:21.472Z,23.90
2018-05-07T15:52:49.088Z,23.80
2018-05-07T15:55:16.744Z,23.70
2018-05-07T15:57:45.085Z,23.70
2018-05-07T16:00:13.392Z,23.70
2018-05-07T16:02:41.045Z,23.70
2018-05-07T16:05:08.626Z,23.70
2018-05-07T16:07:36.235Z,23.70
2018-05-07T16:10:03.756Z,23.60
2018-05-07T16:12:31.359Z,23.60
2018-05-07T16:14:59.699Z,23.50
2018-05-07T16:17:27.324Z,23.40
2018-05-07T16:19:54.929Z,23.50
2018-05-07T16:22:22.547Z,23.50
2018-05-07T16:24:50.071Z,23.40
2018-05-07T16:27:17.604Z,23.40
2018-05-07T16:29:45.162Z,23.40
2018-05-07T16:32:12.810Z,23.40
2018-05-07T16:34:40.392Z,23.40
2018-05-07T16:37:07.952Z,23.30
2018-05-07T16:39:35.528Z,23.30
2018-05-07T16:42:03.033Z,23.30
2018-05-07T16:44:30.709Z,23.30
2018-05-07T16:46:58.249Z,23.20
2018-05-07T16:49:25.811Z,23.20
2018-05-07T16:51:53.331Z,23.20
2018-05-07T16:54:20.970Z,23.10
2018-05-07T16:56:48.468Z,23.10
2018-05-07T16:59:16.761Z,23.00
2018-05-07T17:01:44.302Z,22.90
2018-05-07T17:04:11.833Z,22.90
2018-05-07T17:06:39.426Z,22.90
2018-05-07T17:09:07.740Z,22.80
2018-05-07T17:11:35.666Z,22.70
2018-05-07T17:14:03.997Z,22.70
2018-05-07T17:16:31.570Z,22.60
2018-05-07T17:18:59.110Z,22.60
2018-05-07T17:21:26.717Z,22.50
2018-05-07T17:23:54.238Z,22.50
2018-05-07T17:26:22.564Z,22.40
2018-05-07T17:28:50.124Z,22.30
2018-05-07T17:31:18.433Z,22.20
2018-05-07T17:33:45.980Z,22.10
2018-05-07T17:36:13.526Z,22.10
2018-05-07T17:38:41.801Z,22.00
2018-05-07T17:41:09.369Z,22.00
2018-05-07T17:43:36.968Z,22.00
2018-05-07T17:46:16.372Z,21.90
2018-05-07T17:48:54.685Z,21.80
2018-05-07T17:51:22.254Z,21.70
2018-05-07T17:53:49.772Z,21.60
2018-05-07T17:56:17.297Z,21.50
2018-05-07T17:58:44.877Z,21.50
2018-05-07T18:01:12.390Z,21.40
2018-05-07T18:03:39.970Z,21.40
2018-05-07T18:06:07.513Z,21.30
2018-05-07T18:08:35.113Z,21.30
2018-05-07T18:11:02.880Z,21.20
2018-05-07T18:13:30.454Z,21.10
2018-05-07T18:15:57.990Z,21.00
2018-05-07T18:18:25.558Z,21.00
2018-05-07T18:20:53.869Z,20.80
2018-05-07T18:23:21.434Z,20.80
2018-05-07T18:25:49.700Z,20.60
2018-05-07T18:28:18.009Z,20.60
2018-05-07T18:30:45.519Z,20.50
2018-05-07T18:33:13.074Z,20.50
2018-05-07T18:35:40.592Z,20.40
2018-05-07T18:38:08.096Z,20.30
2018-05-07T18:40:35.663Z,20.20
2018-05-07T18:43:03.174Z,20.20
2018-05-07T18:45:30.716Z,20.10
2018-05-07T18:47:58.230Z,20.00
2018-05-07T18:50:25.806Z,19.90
2018-05-07T18:52:53.337Z,19.80
2018-05-07T18:55:20.871Z,19.70
2018-05-07T18:57:48.421Z,19.60
2018-05-07T19:00:15.978Z,19.50
2018-05-07T19:02:43.530Z,19.40
2018-05-07T19:05:11.089Z,19.40
2018-05-07T19:07:39.532Z,19.20
2018-05-07T19:10:07.102Z,19.10
2018-05-07T19:12:34.646Z,19.10
2018-05-07T19:15:02.185Z,19.00
2018-05-07T19:17:29.696Z,18.90
2018-05-07T19:19:58.028Z,18.80
2018-05-07T19:22:25.530Z,18.70
2018-05-07T19:24:53.812Z,18.60
2018-05-07T19:27:21.363Z,18.60
2018-05-07T19:29:48.969Z,18.60
2018-05-07T19:32:16.484Z,18.50
2018-05-07T19:34:43.998Z,18.40
2018-05-07T19:37:11.548Z,18.30
2018-05-07T19:39:39.062Z,18.20
2018-05-07T19:42:06.613Z,18.10
2018-05-07T19:44:34.900Z,18.00
2018-05-07T19:47:03.207Z,17.90
2018-05-07T19:49:30.740Z,17.80
2018-05-07T19:51:58.306Z,17.80
2018-05-07T19:54:25.840Z,17.70
2018-05-07T19:56:53.404Z,17.60
2018-05-07T19:59:21.691Z,17.50
2018-05-07T20:01:50.016Z,17.30
2018-05-07T20:04:17.533Z,17.30
2018-05-07T20:06:45.082Z,17.30
2018-05-07T20:09:12.579Z,17.20
2018-05-07T20:11:40.092Z,17.10
2018-05-07T20:14:07.670Z,17.00
2018-05-07T20:16:35.943Z,16.80
2018-05-07T20:19:04.268Z,16.70
2018-05-07T20:21:31.783Z,16.70
2018-05-07T20:23:59.326Z,16.70
2018-05-07T20:26:27.597Z,16.50
2018-05-07T20:28:55.911Z,16.40
2018-05-07T20:31:23.422Z,16.40
2018-05-07T20:33:50.968Z,16.30
2018-05-07T20:36:18.496Z,16.30
2018-05-07T20:38:46.048Z,16.20
2018-05-07T20:41:13.551Z,16.10
2018-05-07T20:43:41.088Z,16.00
2018-05-07T20:46:08.616Z,16.00
2018-05-07T20:48:36.166Z,15.90
2018-05-07T20:51:04.449Z,15.80
2018-05-07T20:53:31.984Z,15.80
2018-05-07T20:55:59.487Z,15.80
2018-05-07T20:58:27.071Z,15.70
2018-05-07T21:00:54.589Z,15.60
2018-05-07T21:03:22.112Z,15.60
2018-05-07T21:05:49.679Z,15.50
2018-05-07T21:08:17.199Z,15.50
2018-05-07T21:10:44.738Z,15.40
2018-05-07T21:13:12.339Z,15.40
2018-05-07T21:15:39.811Z,15.40
2018-05-07T21:18:07.325Z,15.30
2018-05-07T21:20:34.864Z,15.30
2018-05-07T21:23:02.373Z,15.20
2018-05-07T21:25:29.916Z,15.20
2018-05-07T21:27:57.428Z,15.10
2018-05-07T21:30:24.987Z,15.10
2018-05-07T21:32:53.264Z,15.00
2018-05-07T21:35:21.571Z,14.90
2018-05-07T21:37:49.084Z,14.90
2018-05-07T21:40:16.631Z,14.90
2018-05-07T21:42:44.148Z,14.80
2018-05-07T21:45:11.683Z,14.80
2018-05-07T21:47:39.204Z,14.80
2018-05-07T21:50:06.747Z,14.70
2018-05-07T21:52:34.259Z,14.60
2018-05-07T21:55:01.841Z,14.60
2018-05-07T21:57:29.353Z,14.60
2018-05-07T21:59:56.867Z,14.50
2018-05-07T22:02:24.412Z,14.50
2018-05-07T22:04:51.933Z,14.50
2018-05-07T22:07:19.497Z,14.40
2018-05-07T22:09:47.015Z,14.40
2018-05-07T22:12:14.590Z,14.30
2018-05-07T22:14:42.091Z,14.30
2018-05-07T22:17:09.679Z,14.20
2018-05-07T22:19:37.202Z,14.20
2018-05-07T22:22:05.515Z,14.10
2018-05-07T22:24:33.015Z,14.10
2018-05-07T22:27:00.568Z,14.10
2018-05-07T22:29:28.609Z,14.00
2018-05-07T22:31:56.151Z,14.00
2018-05-07T22:34:23.679Z,14.00
2018-05-07T22:36:52.011Z,13.90
2018-05-07T22:39:19.511Z,13.80
2018-05-07T22:41:47.807Z,13.80
2018-05-07T22:44:15.390Z,13.80
2018-05-07T22:46:42.921Z,13.80
2018-05-07T22:49:11.222Z,13.70
2018-05-07T22:51:38.763Z,13.60
2018-05-07T22:54:06.296Z,13.70
2018-05-07T22:56:33.804Z,13.70
2018-05-07T22:59:01.365Z,13.60
2018-05-07T23:01:28.869Z,13.60
2018-05-07T23:03:56.429Z,13.60
2018-05-07T23:06:23.926Z,13.50
2018-05-07T23:08:51.426Z,13.50
2018-05-07T23:11:18.968Z,13.50
2018-05-07T23:13:46.484Z,13.50
2018-05-07T23:16:14.030Z,13.40
2018-05-07T23:18:41.560Z,13.40
2018-05-07T23:21:09.116Z,13.40
2018-05-07T23:23:37.428Z,13.30
2018-05-07T23:26:04.978Z,13.30
2018-05-07T23:28:32.485Z,13.30
2018-05-07T23:31:00.032Z,13.30
2018-05-07T23:33:27.547Z,13.20
2018-05-07T23:35:55.100Z,13.20
2018-05-07T23:38:23.380Z,13.10
2018-05-07T23:40:51.686Z,13.10
2018-05-07T23:43:19.979Z,13.00
2018-05-07T23:45:47.496Z,13.00
2018-05-07T23:48:15.036Z,13.00
2018-05-07T23:50:42.564Z,13.00
2018-05-07T23:53:11.074Z,12.90
2018-05-07T23:55:39.338Z,12.80
2018-05-07T23:58:06.883Z,12.80
